Time;durP1;ratioP1;P1;durP2;ratioP2;P2;SDS_P1;SDS_P2;PMS_P1;PMS_P2;Temp;Humidity;BMP_temperature;BMP_pressure;BME280_temperature;BME280_humidity;BME280_pressure;Samples;Min_cycle;Max_cycle;Signal;HPM_P1;HPM_P2
2021/09/14 00:01:26;;;;;;;20.08;13.95;;;;;;;17.34;61.36;100282.44;5045029;28;20061;-71
2021/09/14 00:03:54;;;;;;;17.83;12.02;;;;;;;17.32;61.56;100287.09;5049059;28;20044;-72
2021/09/14 00:06:21;;;;;;;19.58;12.98;;;;;;;17.31;61.56;100282.75;5048937;28;20540;-72
2021/09/14 00:08:48;;;;;;;16.95;13.60;;;;;;;17.29;61.61;100283.91;5047472;28;20049;-71
2021/09/14 00:11:15;;;;;;;18.05;12.95;;;;;;;17.22;61.91;100275.66;5048767;28;20056;-71
2021/09/14 00:13:42;;;;;;;16.45;12.90;;;;;;;17.24;62.11;100278.19;5049505;28;20485;-72
2021/09/14 00:16:09;;;;;;;17.95;13.82;;;;;;;17.24;62.08;100281.69;5047260;28;20048;-72
2021/09/14 00:18:36;;;;;;;23.58;14.45;;;;;;;17.32;61.90;100278.25;5048539;28;20661;-72
2021/09/14 00:21:04;;;;;;;16.05;12.80;;;;;;;17.30;62.00;100274.88;5048281;28;20504;-73
2021/09/14 00:23:31;;;;;;;24.17;13.60;;;;;;;17.29;62.24;100279.41;5047039;28;20045;-73
2021/09/14 00:25:58;;;;;;;19.17;13.25;;;;;;;17.31;62.01;100281.91;5048530;28;20565;-71
2021/09/14 00:28:25;;;;;;;17.77;12.88;;;;;;;17.34;62.19;100278.91;5047459;28;20064;-73
2021/09/14 00:30:52;;;;;;;17.38;12.98;;;;;;;17.37;61.97;100287.47;5046074;28;20053;-71
2021/09/14 00:33:19;;;;;;;20.15;12.80;;;;;;;17.41;62.08;100281.81;5049030;28;20055;-72
2021/09/14 00:35:46;;;;;;;16.27;12.10;;;;;;;17.43;62.11;100291.38;5047863;28;20045;-72
2021/09/14 00:38:14;;;;;;;17.40;12.93;;;;;;;17.51;61.94;100287.91;5048282;28;20036;-71
2021/09/14 00:40:41;;;;;;;20.67;12.07;;;;;;;17.61;61.67;100287.81;5048207;28;20056;-72
2021/09/14 00:43:08;;;;;;;19.42;13.45;;;;;;;17.63;61.71;100281.31;5046533;28;20041;-72
2021/09/14 00:45:35;;;;;;;17.52;13.25;;;;;;;17.69;61.41;100286.03;5047428;28;20044;-71
2021/09/14 00:48:02;;;;;;;18.05;12.15;;;;;;;17.71;61.60;100289.38;5055903;28;20029;-72
2021/09/14 00:50:29;;;;;;;17.15;11.93;;;;;;;17.79;61.41;100291.28;5048271;28;20071;-72
2021/09/14 00:52:56;;;;;;;20.33;12.48;;;;;;;17.88;61.24;100287.69;5047448;28;20045;-72
2021/09/14 00:55:24;;;;;;;15.90;10.93;;;;;;;17.91;61.21;100283.84;5047066;28;20056;-71
2021/09/14 00:57:51;;;;;;;16.33;11.93;;;;;;;17.95;61.19;100285.22;5046892;28;20045;-72
2021/09/14 01:00:18;;;;;;;16.88;11.20;;;;;;;17.99;61.16;100283.91;5045395;28;20049;-71
2021/09/14 01:02:46;;;;;;;14.65;11.13;;;;;;;18.03;60.99;100287.94;5047226;28;20124;-71
2021/09/14 01:05:13;;;;;;;17.60;12.30;;;;;;;18.08;60.92;100288.31;5047273;28;20070;-73
2021/09/14 01:07:42;;;;;;;16.75;12.57;;;;;;;18.12;60.79;100286.16;5047255;28;20049;-71
2021/09/14 01:10:12;;;;;;;19.15;14.85;;;;;;;18.03;60.86;100287.13;5047629;28;20045;-72
2021/09/14 01:12:41;;;;;;;21.92;14.20;;;;;;;17.93;61.45;100289.88;5048730;28;20049;-72
2021/09/14 01:15:09;;;;;;;15.90;13.13;;;;;;;17.89;61.39;100297.38;5051903;28;20048;-73
2021/09/14 01:17:36;;;;;;;21.13;12.40;;;;;;;17.91;61.45;100290.03;5047824;28;20068;-71
2021/09/14 01:20:04;;;;;;;15.07;12.85;;;;;;;17.90;61.70;100293.72;5048187;28;20044;-71
2021/09/14 01:22:32;;;;;;;17.30;12.45;;;;;;;17.85;62.08;100284.47;5047586;28;20045;-71
2021/09/14 01:25:00;;;;;;;15.98;12.50;;;;;;;17.81;61.73;100289.28;5047059;28;20455;-71
2021/09/14 01:27:27;;;;;;;16.67;12.90;;;;;;;17.79;61.74;100288.63;5047003;28;20049;-71
2021/09/14 01:30:13;;;;;;;16.75;12.55;;;;;;;17.75;61.72;100290.75;5046009;28;20080;-70
2021/09/14 01:32:40;;;;;;;;;;;;;;;18.06;60.88;100282.28;5047130;28;20087;-71
2021/09/14 01:35:10;;;;;;;14.90;12.57;;;;;;;17.75;61.79;100287.22;5046290;28;20507;-72
2021/09/14 01:37:39;;;;;;;17.65;13.25;;;;;;;17.60;62.25;100286.16;5046919;28;20049;-72
2021/09/14 01:40:08;;;;;;;19.58;14.73;;;;;;;17.50;62.68;100286.22;5047780;28;20119;-72
2021/09/14 01:42:36;;;;;;;16.98;13.77;;;;;;;17.43;62.99;100291.38;5045767;28;20499;-72
2021/09/14 01:45:04;;;;;;;15.98;12.35;;;;;;;17.36;63.16;100287.63;5047597;28;20049;-72
2021/09/14 01:47:31;;;;;;;22.77;15.02;;;;;;;17.33;63.25;100290.59;5047448;28;20568;-72
2021/09/14 01:49:58;;;;;;;18.73;13.75;;;;;;;17.27;63.26;100285.88;5046275;28;20045;-72
2021/09/14 01:52:27;;;;;;;17.13;13.80;;;;;;;17.23;63.35;100288.00;5046979;28;20630;-73
2021/09/14 01:54:58;;;;;;;17.42;13.63;;;;;;;17.19;63.35;100286.63;5046991;28;20635;-69
2021/09/14 01:57:28;;;;;;;17.33;12.85;;;;;;;17.14;63.53;100292.47;5046441;28;20488;-72
2021/09/14 01:59:57;;;;;;;17.25;12.90;;;;;;;17.12;63.41;100288.25;5045585;28;20045;-71
2021/09/14 02:02:34;;;;;;;22.45;15.07;;;;;;;17.09;63.47;100299.25;5046681;28;20131;-73
2021/09/14 02:05:04;;;;;;;18.17;14.57;;;;;;;17.07;63.50;100295.88;5046287;28;20056;-72
2021/09/14 02:30:15;;;;;;;20.80;15.57;;;;;;;16.35;64.99;100296.56;4868814;29;20084;-71
2021/09/14 02:38:30;;;;;;;21.58;15.55;;;;;;;16.17;65.39;100296.50;4869894;29;20072;-74
2021/09/14 02:41:10;;;;;;;19.63;14.43;;;;;;;16.13;65.53;100292.44;4870014;29;20049;-73
2021/09/14 03:00:08;;;;;;;21.48;15.82;;;;;;;15.75;65.52;100296.91;4984534;28;20073;-72
2021/09/14 03:02:38;;;;;;;21.98;14.52;;;;;;;15.72;65.68;100299.00;5047957;28;20045;-70
2021/09/14 03:05:13;;;;;;;19.83;14.48;;;;;;;15.71;65.68;100298.16;5047948;28;20175;-70
2021/09/14 03:07:41;;;;;;;18.80;14.40;;;;;;;15.69;65.63;100300.13;5048040;28;20049;-71
2021/09/14 03:10:12;;;;;;;27.88;16.40;;;;;;;15.59;66.01;100305.47;5048808;28;20049;-72
2021/09/14 03:12:39;;;;;;;22.08;16.35;;;;;;;15.55;66.26;100305.91;5047552;28;20602;-71
2021/09/14 03:15:09;;;;;;;30.67;18.27;;;;;;;15.54;66.38;100298.88;5047458;28;20052;-73
2021/09/14 03:17:36;;;;;;;22.23;17.00;;;;;;;15.53;66.39;100305.19;5045735;28;20048;-72
2021/09/14 03:20:04;;;;;;;25.85;19.33;;;;;;;15.48;66.61;100293.16;5046678;28;20647;-72
2021/09/14 03:22:31;;;;;;;30.15;18.35;;;;;;;15.45;66.76;100303.25;5049746;28;20049;-73
2021/09/14 03:24:58;;;;;;;28.65;18.42;;;;;;;15.43;66.91;100302.53;5049919;28;20049;-72
2021/09/14 03:27:25;;;;;;;30.08;19.02;;;;;;;15.37;67.01;100306.59;5048755;28;20686;-72
2021/09/14 03:29:52;;;;;;;24.15;18.33;;;;;;;15.35;67.16;100305.06;5047476;28;20063;-72
2021/09/14 03:32:20;;;;;;;27.58;17.88;;;;;;;15.34;67.29;100309.56;5049676;28;20065;-72
2021/09/14 03:34:47;;;;;;;30.80;19.88;;;;;;;15.33;67.16;100310.53;5050927;28;20045;-71
2021/09/14 03:37:14;;;;;;;30.02;18.58;;;;;;;15.32;67.16;100314.16;5049841;28;20048;-73
2021/09/14 03:39:41;;;;;;;27.00;17.70;;;;;;;15.30;67.00;100316.13;5049298;28;20079;-72
2021/09/14 03:42:08;;;;;;;25.13;18.17;;;;;;;15.29;67.06;100309.97;5048995;28;20052;-72
2021/09/14 03:44:35;;;;;;;28.45;20.20;;;;;;;15.29;66.97;100309.97;5049765;28;20123;-70
2021/09/14 03:47:02;;;;;;;30.27;18.50;;;;;;;15.26;66.93;100307.59;5049819;28;20164;-71
2021/09/14 03:49:31;;;;;;;28.63;19.33;;;;;;;15.24;67.08;100306.06;5049053;28;20049;-70
2021/09/14 03:51:58;;;;;;;26.38;19.08;;;;;;;15.22;67.10;100314.19;5031706;28;20458;-71
2021/09/14 03:54:24;;;;;;;31.38;18.13;;;;;;;15.18;67.13;100312.78;5048990;28;20043;-69
2021/09/14 03:56:51;;;;;;;33.45;18.25;;;;;;;15.14;67.11;100315.84;5047975;28;20064;-71
2021/09/14 03:59:19;;;;;;;40.03;19.10;;;;;;;15.12;67.00;100315.16;5051110;28;20133;-74
2021/09/14 04:01:50;;;;;;;31.25;19.40;;;;;;;15.11;67.05;100322.31;5048697;28;20072;-72
2021/09/14 04:04:20;;;;;;;27.92;17.50;;;;;;;15.15;66.65;100317.53;5047905;28;20075;-72
2021/09/14 04:09:36;;;;;;;24.75;16.65;;;;;;;15.06;66.94;100319.22;4986517;28;20062;-71
2021/09/14 04:12:04;;;;;;;21.85;15.13;;;;;;;15.04;66.84;100337.97;4985575;28;20701;-72
2021/09/14 04:14:32;;;;;;;22.77;15.40;;;;;;;15.06;66.84;100329.84;4986508;28;20046;-72
2021/09/14 04:16:59;;;;;;;20.08;15.00;;;;;;;15.06;66.82;100333.34;4985756;28;20053;-71
2021/09/14 04:19:27;;;;;;;24.00;15.30;;;;;;;15.07;66.68;100339.50;4985881;28;20181;-71
2021/09/14 04:21:55;;;;;;;23.85;14.43;;;;;;;15.08;66.60;100341.19;4985145;28;20047;-70
2021/09/14 04:24:22;;;;;;;20.00;13.90;;;;;;;15.09;66.48;100335.72;4986693;28;20524;-70
2021/09/14 04:26:50;;;;;;;18.50;11.65;;;;;;;15.07;66.23;100336.84;4986048;28;20054;-71
2021/09/14 04:29:17;;;;;;;17.75;11.60;;;;;;;14.98;66.25;100346.50;4983784;28;20050;-70
2021/09/14 04:31:44;;;;;;;17.08;12.82;;;;;;;14.94;66.25;100346.91;4984925;28;20610;-71
2021/09/14 04:34:11;;;;;;;22.58;14.20;;;;;;;14.94;66.20;100346.91;4986155;28;20050;-71
2021/09/14 04:36:38;;;;;;;16.38;11.35;;;;;;;14.91;65.92;100342.72;4986054;28;20050;-69
2021/09/14 04:39:07;;;;;;;15.63;11.20;;;;;;;14.89;65.91;100347.31;4985559;28;20046;-77
2021/09/14 04:41:34;;;;;;;15.48;11.38;;;;;;;14.86;65.69;100352.91;4971601;28;20053;-75
2021/09/14 04:44:04;;;;;;;18.92;13.55;;;;;;;14.85;65.70;100341.41;4986644;28;20047;-72
2021/09/14 04:46:31;;;;;;;19.30;13.20;;;;;;;14.86;65.62;100337.78;5013389;28;20075;-71
2021/09/14 04:48:58;;;;;;;17.42;12.07;;;;;;;14.96;65.40;100348.44;5048192;28;20041;-71
2021/09/14 04:51:25;;;;;;;15.95;10.15;;;;;;;15.06;65.12;100351.13;5047674;28;20412;-70
2021/09/14 04:53:52;;;;;;;16.08;10.23;;;;;;;15.28;64.62;100344.69;5051510;28;20048;-71
2021/09/14 04:56:20;;;;;;;13.95;9.52;;;;;;;15.55;64.22;100351.16;5054868;28;20048;-72
2021/09/14 04:58:49;;;;;;;15.93;10.52;;;;;;;15.76;63.44;100351.84;5052803;28;20052;-72
2021/09/14 05:01:17;;;;;;;12.77;10.65;;;;;;;15.94;62.93;100356.47;5047619;28;20048;-73
2021/09/14 05:03:44;;;;;;;16.23;10.80;;;;;;;16.05;62.79;100349.13;5047384;28;20052;-73
2021/09/14 05:06:11;;;;;;;14.10;11.18;;;;;;;16.12;62.46;100354.72;5049013;28;20052;-74
2021/09/14 05:08:40;;;;;;;22.42;13.82;;;;;;;16.10;62.46;100351.38;5046644;28;20045;-70
2021/09/14 05:11:07;;;;;;;18.20;12.40;;;;;;;16.16;62.56;100356.09;5046503;28;20048;-70
2021/09/14 05:13:37;;;;;;;19.02;11.50;;;;;;;16.23;62.54;100357.22;5046785;28;20051;-69
2021/09/14 05:16:04;;;;;;;18.40;12.45;;;;;;;16.32;62.32;100360.00;5045965;28;20048;-70
2021/09/14 05:18:31;;;;;;;19.10;13.52;;;;;;;16.42;62.25;100360.78;5047295;28;20045;-70
2021/09/14 05:20:58;;;;;;;18.80;14.93;;;;;;;16.51;62.16;100357.25;5045771;28;20484;-71
2021/09/14 05:23:30;;;;;;;19.90;15.52;;;;;;;16.58;62.20;100355.69;5045282;28;20052;-72
2021/09/14 05:25:58;;;;;;;19.13;14.43;;;;;;;16.70;62.12;100353.66;5047671;28;20099;-70
2021/09/14 05:28:25;;;;;;;19.75;14.02;;;;;;;16.78;62.08;100358.22;5047394;28;20045;-70
2021/09/14 05:30:54;;;;;;;22.67;15.15;;;;;;;16.92;61.97;100363.09;5045304;28;20052;-69
2021/09/14 05:33:21;;;;;;;23.00;14.57;;;;;;;17.00;62.03;100349.03;5046680;28;20060;-71
2021/09/14 05:35:50;;;;;;;23.77;15.13;;;;;;;17.10;61.98;100351.59;5045468;28;20489;-71
2021/09/14 05:38:19;;;;;;;22.02;15.38;;;;;;;17.20;61.85;100355.88;5045921;28;20057;-71
2021/09/14 05:40:49;;;;;;;24.77;15.77;;;;;;;17.36;61.43;100354.38;5046435;28;20117;-69
2021/09/14 05:43:17;;;;;;;27.05;16.35;;;;;;;17.40;61.57;100353.06;5045143;28;20059;-71
2021/09/14 05:45:44;;;;;;;23.98;16.23;;;;;;;17.50;61.25;100352.97;5045226;28;20048;-71
2021/09/14 05:48:12;;;;;;;24.92;15.73;;;;;;;17.56;61.45;100349.72;5044391;28;20621;-70
2021/09/14 05:50:39;;;;;;;20.85;14.68;;;;;;;17.62;61.33;100357.09;5045821;28;20048;-70
2021/09/14 05:53:06;;;;;;;27.30;16.98;;;;;;;17.69;61.50;100358.16;5046016;28;20060;-70
2021/09/14 05:55:36;;;;;;;26.63;16.13;;;;;;;17.75;61.39;100354.88;5044496;28;20045;-69
2021/09/14 05:58:03;;;;;;;22.23;15.77;;;;;;;17.80;61.23;100357.06;5044825;28;20059;-70
2021/09/14 06:00:30;;;;;;;21.02;15.35;;;;;;;17.79;61.44;100355.41;5042389;28;20519;-70
2021/09/14 06:02:57;;;;;;;24.13;15.02;;;;;;;17.84;61.39;100354.91;5044700;28;20049;-70
2021/09/14 06:05:26;;;;;;;21.55;14.88;;;;;;;17.89;61.59;100366.00;5043362;28;20045;-71
2021/09/14 06:07:53;;;;;;;23.40;15.57;;;;;;;17.95;61.28;100365.38;5044311;28;20057;-71
2021/09/14 06:10:20;;;;;;;27.58;17.95;;;;;;;17.98;61.52;100365.06;5045213;28;20060;-70
2021/09/14 06:12:47;;;;;;;25.70;16.38;;;;;;;18.02;61.45;100373.63;5043109;28;20048;-71
2021/09/14 06:15:14;;;;;;;25.50;16.00;;;;;;;17.99;61.72;100363.22;5044741;28;20056;-69
2021/09/14 06:17:42;;;;;;;25.90;16.23;;;;;;;17.96;61.82;100367.06;5044124;28;20056;-70
2021/09/14 06:20:10;;;;;;;25.02;18.98;;;;;;;17.89;62.38;100371.38;5045267;28;20045;-70
2021/09/14 06:22:38;;;;;;;23.77;17.55;;;;;;;17.85;62.61;100361.97;5045560;28;20052;-69
2021/09/14 06:25:07;;;;;;;26.17;17.27;;;;;;;17.86;62.59;100369.84;5044228;28;20041;-70
2021/09/14 06:27:34;;;;;;;22.55;16.33;;;;;;;17.86;63.00;100366.31;5048389;28;20520;-70
2021/09/14 06:30:02;;;;;;;22.23;17.00;;;;;;;17.90;63.03;100365.03;5043307;28;20049;-70
2021/09/14 06:32:29;;;;;;;25.45;18.02;;;;;;;17.96;63.25;100364.41;5043897;28;20539;-70
2021/09/14 06:34:55;;;;;;;25.15;16.10;;;;;;;18.01;62.99;100366.63;5045895;28;20515;-71
2021/09/14 06:37:22;;;;;;;22.77;15.65;;;;;;;18.09;63.20;100364.81;5045422;28;20529;-72
2021/09/14 06:39:51;;;;;;;20.63;16.50;;;;;;;18.22;63.12;100369.75;5044129;28;20059;-72
2021/09/14 06:42:18;;;;;;;23.10;15.82;;;;;;;18.31;62.90;100366.13;5044221;28;20045;-70
2021/09/14 06:44:44;;;;;;;20.45;17.45;;;;;;;18.38;62.81;100365.47;5043934;28;20045;-70
2021/09/14 06:47:13;;;;;;;24.88;15.32;;;;;;;18.47;62.93;100375.22;5042929;28;20357;-70
2021/09/14 06:49:40;;;;;;;20.83;14.75;;;;;;;18.57;62.74;100372.44;5043440;28;20076;-69
2021/09/14 06:52:08;;;;;;;20.30;14.38;;;;;;;18.66;62.63;100372.31;5043060;28;20408;-72
2021/09/14 06:54:34;;;;;;;19.55;13.52;;;;;;;18.84;62.45;100371.41;5044275;28;20728;-71
2021/09/14 06:57:03;;;;;;;16.40;12.20;;;;;;;19.01;62.21;100365.06;5049509;28;20109;-71
2021/09/14 06:59:30;;;;;;;18.38;12.80;;;;;;;19.15;61.92;100365.47;5044781;28;20056;-71
2021/09/14 07:01:57;;;;;;;17.52;11.85;;;;;;;19.27;61.64;100373.00;5046515;28;20416;-71
2021/09/14 07:04:23;;;;;;;16.70;12.15;;;;;;;19.38;61.20;100365.66;5049145;28;20041;-70
2021/09/14 07:06:51;;;;;;;17.08;11.63;;;;;;;19.57;60.98;100367.16;5047159;28;20053;-70
2021/09/14 07:09:19;;;;;;;15.50;11.65;;;;;;;19.72;60.72;100362.00;5046713;28;20154;-71
2021/09/14 07:11:46;;;;;;;18.08;13.88;;;;;;;19.82;60.61;100366.19;5048727;28;20045;-71
2021/09/14 07:14:15;;;;;;;15.50;11.30;;;;;;;19.92;60.09;100360.66;5046803;28;20060;-71
2021/09/14 07:16:42;;;;;;;16.15;11.60;;;;;;;20.09;59.75;100356.09;5045538;28;20045;-70
2021/09/14 07:19:09;;;;;;;17.75;11.95;;;;;;;20.24;59.48;100365.13;5047238;28;20049;-71
2021/09/14 07:21:38;;;;;;;15.70;11.23;;;;;;;20.36;59.49;100362.91;5046173;28;20049;-70
2021/09/14 07:24:06;;;;;;;15.32;11.52;;;;;;;20.53;59.15;100370.91;5046323;28;20052;-71
2021/09/14 07:26:33;;;;;;;13.52;12.23;;;;;;;20.59;58.57;100370.22;5047358;28;20056;-72
2021/09/14 07:29:00;;;;;;;15.48;12.45;;;;;;;20.44;58.56;100368.25;5047181;28;20061;-70
2021/09/14 07:31:30;;;;;;;12.63;10.32;;;;;;;20.50;58.76;100371.25;5044690;28;20056;-73
2021/09/14 07:33:57;;;;;;;11.30;10.07;;;;;;;20.66;58.40;100373.91;5046529;28;20517;-70
2021/09/14 07:36:25;;;;;;;15.65;10.45;;;;;;;20.95;57.63;100386.69;5045317;28;20057;-71
2021/09/14 07:38:51;;;;;;;13.20;10.80;;;;;;;21.01;57.08;100382.44;5046029;28;20045;-70
2021/09/14 07:41:18;;;;;;;13.07;10.93;;;;;;;21.12;56.44;100378.53;5049722;28;20088;-71
2021/09/14 07:43:47;;;;;;;12.38;10.48;;;;;;;21.34;56.04;100385.78;5055814;28;20049;-70
2021/09/14 07:46:14;;;;;;;23.65;13.13;;;;;;;21.24;56.37;100387.03;5048128;28;20078;-69
2021/09/14 07:48:44;;;;;;;14.95;11.07;;;;;;;21.12;55.45;100384.75;5044749;28;20629;-71
2021/09/14 07:51:11;;;;;;;15.38;12.77;;;;;;;21.11;55.49;100382.25;5009496;28;20045;-72
2021/09/14 07:53:38;;;;;;;17.02;15.20;;;;;;;21.15;55.40;100386.25;5045278;28;20237;-70
2021/09/14 07:56:05;;;;;;;17.63;15.82;;;;;;;21.14;55.46;100380.03;5044636;28;20493;-71
2021/09/14 07:58:32;;;;;;;21.00;18.75;;;;;;;21.29;55.53;100388.16;5045011;28;20056;-71
2021/09/14 08:00:59;;;;;;;22.90;16.80;;;;;;;21.53;55.48;100386.34;5044384;28;20668;-71
2021/09/14 08:03:26;;;;;;;19.00;17.10;;;;;;;21.66;54.92;100380.38;5044178;28;20068;-69
2021/09/14 08:05:54;;;;;;;18.75;16.95;;;;;;;21.48;54.89;100384.22;5044340;28;20052;-72
2021/09/14 08:08:21;;;;;;;21.75;19.55;;;;;;;21.24;55.29;100389.72;5046308;28;20087;-70
2021/09/14 08:10:48;;;;;;;18.10;16.35;;;;;;;21.25;55.08;100389.53;5044128;28;20049;-70
2021/09/14 08:13:16;;;;;;;15.00;13.27;;;;;;;21.30;55.03;100389.00;5045896;28;20056;-72
2021/09/14 08:15:43;;;;;;;15.10;13.52;;;;;;;21.50;54.83;100387.56;5045155;28;20048;-71
2021/09/14 08:18:10;;;;;;;11.63;10.25;;;;;;;21.71;54.12;100384.16;5044262;28;20049;-70
2021/09/14 08:20:37;;;;;;;13.73;11.68;;;;;;;21.91;53.72;100389.06;5044615;28;20052;-71
2021/09/14 08:23:05;;;;;;;14.60;11.93;;;;;;;22.00;53.52;100384.44;5047200;28;20045;-71
2021/09/14 08:25:32;;;;;;;9.43;6.82;;;;;;;22.11;52.45;100384.84;5044160;28;20041;-70
2021/09/14 08:27:59;;;;;;;13.77;11.93;;;;;;;22.28;52.50;100387.38;5043571;28;20405;-75
2021/09/14 08:30:26;;;;;;;14.82;13.27;;;;;;;22.28;52.00;100388.22;5043928;28;20056;-70
2021/09/14 08:32:53;;;;;;;18.20;12.52;;;;;;;22.42;51.92;100389.25;5043655;28;20515;-71
2021/09/14 08:35:19;;;;;;;19.27;17.27;;;;;;;22.90;51.14;100383.44;5043408;28;20473;-71
2021/09/14 08:37:46;;;;;;;17.55;15.63;;;;;;;22.53;51.57;100398.72;5044266;28;20056;-70
2021/09/14 08:40:16;;;;;;;17.52;15.73;;;;;;;22.45;51.62;100396.09;5042204;28;20048;-70
2021/09/14 08:42:43;;;;;;;14.73;13.00;;;;;;;22.39;51.86;100397.69;5045450;28;20049;-71
2021/09/14 08:45:12;;;;;;;15.82;13.95;;;;;;;22.36;51.65;100397.22;5027457;28;20056;-71
2021/09/14 08:47:40;;;;;;;16.55;13.82;;;;;;;22.04;52.22;100404.56;5041904;28;20055;-71
2021/09/14 08:50:08;;;;;;;17.95;15.80;;;;;;;21.72;53.00;100401.16;5044178;28;20045;-69
2021/09/14 08:52:36;;;;;;;19.92;17.85;;;;;;;21.56;53.94;100407.50;5044467;28;20041;-70
2021/09/14 08:55:04;;;;;;;18.55;16.77;;;;;;;21.69;53.30;100398.81;5041818;28;20055;-71
2021/09/14 08:57:34;;;;;;;15.73;14.32;;;;;;;21.80;52.32;100397.56;5044205;28;20052;-70
2021/09/14 09:00:01;;;;;;;20.23;18.20;;;;;;;21.73;52.34;100409.06;5041266;28;20417;-72
2021/09/14 09:02:28;;;;;;;21.13;18.92;;;;;;;21.63;53.14;100407.63;5042996;28;20508;-71
2021/09/14 09:04:59;;;;;;;16.98;15.27;;;;;;;21.73;53.05;100411.75;5053515;28;20040;-71
2021/09/14 09:07:36;;;;;;;18.58;16.85;;;;;;;21.77;52.26;100407.66;5062098;28;20049;-70
2021/09/14 09:10:12;;;;;;;18.10;15.05;;;;;;;21.84;52.08;100399.72;5044628;28;20090;-70
2021/09/14 09:12:42;;;;;;;18.67;16.88;;;;;;;21.91;52.06;100405.19;5064190;28;20044;-72
2021/09/14 09:15:11;;;;;;;14.95;13.55;;;;;;;22.02;51.38;100410.16;5062586;28;20059;-71
2021/09/14 09:17:37;;;;;;;13.02;11.73;;;;;;;22.14;51.11;100405.97;5061856;28;20041;-70
2021/09/14 09:20:07;;;;;;;16.38;14.68;;;;;;;22.12;51.06;100407.19;5063014;28;20056;-70
2021/09/14 09:22:35;;;;;;;16.55;14.82;;;;;;;22.05;51.77;100414.31;5061188;28;20044;-70
2021/09/14 09:25:02;;;;;;;12.77;11.45;;;;;;;22.09;51.82;100412.91;5061996;28;20185;-70
2021/09/14 09:27:29;;;;;;;13.40;11.75;;;;;;;22.25;52.01;100418.13;5063653;28;20127;-71
2021/09/14 09:30:02;;;;;;;16.10;14.40;;;;;;;22.69;50.84;100409.28;5060070;28;20054;-71
2021/09/14 09:32:46;;;;;;;12.05;9.70;;;;;;;22.53;49.53;100418.38;5062818;28;20052;-71
2021/09/14 09:35:24;;;;;;;14.45;12.70;;;;;;;22.43;50.36;100409.75;5062049;28;20060;-71
2021/09/14 09:37:52;;;;;;;14.40;12.45;;;;;;;22.36;50.46;100413.38;5062485;28;20044;-71
2021/09/14 09:40:28;;;;;;;14.80;10.55;;;;;;;22.23;49.89;100412.13;5062864;28;20459;-70
2021/09/14 09:42:55;;;;;;;10.18;8.95;;;;;;;22.24;49.19;100411.09;5062043;28;20045;-71
2021/09/14 09:45:23;;;;;;;14.77;9.52;;;;;;;22.59;49.35;100411.41;5062606;28;20045;-71
2021/09/14 09:47:50;;;;;;;12.00;10.32;;;;;;;22.87;48.59;100410.75;5063128;28;20482;-72
2021/09/14 09:50:17;;;;;;;12.68;11.13;;;;;;;23.07;48.64;100411.03;5062539;28;20064;-70
2021/09/14 09:52:44;;;;;;;13.75;11.18;;;;;;;22.86;47.90;100406.38;5062303;28;20049;-70
2021/09/14 09:55:12;;;;;;;12.98;10.90;;;;;;;22.44;48.24;100403.34;5064647;28;20102;-72
2021/09/14 09:57:39;;;;;;;8.38;7.13;;;;;;;22.23;47.41;100406.72;5062145;28;20086;-70
2021/09/14 10:00:11;;;;;;;9.50;6.60;;;;;;;22.25;46.05;100410.06;5063210;28;20056;-70
2021/09/14 10:02:45;;;;;;;9.55;7.00;;;;;;;22.43;46.55;100404.34;5073664;28;20052;-70
2021/09/14 10:05:14;;;;;;;12.48;10.77;;;;;;;22.55;47.49;100403.91;5061871;28;20186;-71
2021/09/14 10:07:45;;;;;;;14.52;11.23;;;;;;;22.73;47.67;100409.75;5043269;28;20381;-71
2021/09/14 10:10:12;;;;;;;14.02;10.70;;;;;;;22.88;47.64;100407.03;5026146;28;20484;-72
2021/09/14 10:12:39;;;;;;;16.90;10.90;;;;;;;23.03;47.43;100405.16;5062402;28;20087;-72
2021/09/14 10:15:09;;;;;;;15.32;11.63;;;;;;;23.15;46.38;100399.31;5062364;28;20048;-70
2021/09/14 10:17:50;;;;;;;10.55;9.15;;;;;;;23.61;44.96;100405.19;5061990;28;20071;-70
2021/09/14 10:20:20;;;;;;;11.90;8.93;;;;;;;24.15;43.38;100394.88;5060965;28;20721;-71
2021/09/14 10:23:01;;;;;;;9.88;8.13;;;;;;;24.42;42.13;100393.16;5061097;28;20190;-71
2021/09/14 10:25:29;;;;;;;10.93;8.23;;;;;;;24.09;42.84;100398.34;5062030;28;20544;-71
2021/09/14 10:28:08;;;;;;;9.63;7.32;;;;;;;24.14;42.79;100398.56;5061392;28;20147;-71
2021/09/14 10:30:35;;;;;;;10.25;7.85;;;;;;;24.36;41.31;100400.19;5059441;28;20052;-72
2021/09/14 10:33:05;;;;;;;7.32;6.25;;;;;;;24.28;41.78;100400.34;5061820;28;20054;-71
2021/09/14 10:35:34;;;;;;;6.40;5.63;;;;;;;24.39;41.04;100396.25;5062860;28;20049;-71
2021/09/14 10:38:06;;;;;;;7.38;4.97;;;;;;;24.56;40.79;100392.25;5062258;28;20117;-72
2021/09/14 10:40:39;;;;;;;6.38;4.82;;;;;;;24.89;40.31;100398.81;5061080;28;20048;-71
2021/09/14 10:43:06;;;;;;;5.32;3.95;;;;;;;25.14;40.10;100396.41;5062982;28;20040;-73
2021/09/14 10:45:44;;;;;;;5.00;3.90;;;;;;;24.99;38.44;100402.81;5026249;28;20083;-69
2021/09/14 10:48:24;;;;;;;3.15;2.83;;;;;;;24.55;35.84;100395.97;5061876;28;20123;-71
2021/09/14 10:50:52;;;;;;;3.90;2.55;;;;;;;24.38;36.06;100398.13;5063411;28;20630;-69
2021/09/14 10:53:27;;;;;;;4.65;2.50;;;;;;;24.40;36.06;100396.06;5063616;28;20048;-70
2021/09/14 10:55:58;;;;;;;3.72;2.53;;;;;;;24.77;36.05;100395.84;5061303;28;20123;-71
2021/09/14 10:58:26;;;;;;;3.95;2.20;;;;;;;25.36;35.71;100399.81;5061875;28;20054;-70
2021/09/14 11:00:53;;;;;;;5.93;3.55;;;;;;;25.76;35.69;100394.47;5058982;28;20056;-71
2021/09/14 11:03:24;;;;;;;4.82;3.67;;;;;;;25.66;35.26;100394.88;5061261;28;20051;-70
2021/09/14 11:05:53;;;;;;;4.68;3.75;;;;;;;25.42;36.15;100393.59;5060602;28;20048;-70
2021/09/14 11:08:26;;;;;;;5.97;3.58;;;;;;;25.45;36.81;100397.78;5061306;28;20052;-71
2021/09/14 11:10:59;;;;;;;4.35;3.45;;;;;;;25.40;37.26;100384.84;5044320;28;20052;-70
2021/09/14 11:13:30;;;;;;;6.50;5.22;;;;;;;25.66;37.45;100388.63;5062182;28;20044;-71
2021/09/14 11:16:00;;;;;;;8.30;5.25;;;;;;;25.45;37.62;100393.19;5061175;28;20048;-71
2021/09/14 11:18:30;;;;;;;6.10;4.72;;;;;;;25.11;38.65;100386.00;5061805;28;20045;-71
2021/09/14 11:21:04;;;;;;;9.93;5.20;;;;;;;24.86;39.39;100383.84;5060781;28;20044;-71
2021/09/14 11:23:33;;;;;;;6.80;4.90;;;;;;;24.68;39.45;100386.25;5062377;28;20099;-71
2021/09/14 11:26:00;;;;;;;8.10;4.72;;;;;;;24.30;40.47;100387.47;5009255;28;20131;-70
2021/09/14 11:28:36;;;;;;;7.65;5.50;;;;;;;24.11;40.94;100389.03;5060401;28;20074;-70
2021/09/14 11:31:08;;;;;;;8.18;5.82;;;;;;;23.90;41.56;100389.06;5059166;28;20113;-72
2021/09/14 11:33:41;;;;;;;9.93;5.93;;;;;;;23.76;42.44;100388.91;5061759;28;20052;-70
2021/09/14 11:36:09;;;;;;;9.38;6.25;;;;;;;23.70;43.16;100384.31;5062078;28;20516;-71
2021/09/14 11:38:37;;;;;;;8.50;5.32;;;;;;;23.65;42.94;100384.88;5061129;28;20692;-70
2021/09/14 11:41:11;;;;;;;7.88;6.05;;;;;;;23.70;42.95;100381.63;5062219;28;20048;-70
2021/09/14 11:43:41;;;;;;;7.18;4.95;;;;;;;23.83;41.42;100387.13;5065362;28;20135;-72
2021/09/14 11:46:17;;;;;;;7.60;5.95;;;;;;;23.75;41.56;100381.00;5065414;28;20044;-71
2021/09/14 11:48:56;;;;;;;9.15;4.72;;;;;;;23.92;41.72;100382.44;5064891;28;20132;-70
2021/09/14 11:51:23;;;;;;;7.68;6.00;;;;;;;23.99;41.97;100379.81;5064883;28;20072;-70
2021/09/14 11:53:51;;;;;;;10.77;6.53;;;;;;;24.10;41.98;100373.03;5065744;28;20052;-71
2021/09/14 11:56:20;;;;;;;7.90;6.57;;;;;;;24.24;41.49;100381.00;5064571;28;20058;-71
2021/09/14 11:58:49;;;;;;;4.97;3.75;;;;;;;24.18;40.13;100378.25;5064704;28;20678;-73
2021/09/14 12:01:18;;;;;;;7.13;2.75;;;;;;;24.30;39.39;100378.56;5063216;28;20066;-71
2021/09/14 12:03:48;;;;;;;4.72;3.55;;;;;;;24.57;38.22;100374.16;5064846;28;20807;-71
2021/09/14 12:06:26;;;;;;;4.00;3.47;;;;;;;24.97;37.77;100375.16;5063604;28;20045;-70